createdAt,value
2023-03-26T00:01:39.287Z,78.97
2023-03-26T00:04:07.851Z,79.13
2023-03-26T00:06:39.852Z,79.13
2023-03-26T00:09:13.585Z,79.19
2023-03-26T00:11:43.042Z,79.13
2023-03-26T00:14:14.190Z,79.09
2023-03-26T00:16:42.891Z,79.12
2023-03-26T00:19:12.808Z,79.12
2023-03-26T00:21:41.573Z,79.05
2023-03-26T00:24:15.520Z,79.12
2023-03-26T00:26:45.048Z,79.19
2023-03-26T00:29:15.684Z,79.11
2023-03-26T00:31:46.556Z,79.26
2023-03-26T00:34:18.645Z,79.34
2023-03-26T00:36:47.508Z,79.39
2023-03-26T00:39:17.813Z,79.49
2023-03-26T00:41:45.852Z,79.43
2023-03-26T00:44:14.040Z,79.65
2023-03-26T00:46:42.849Z,79.61
2023-03-26T00:49:14.981Z,79.54
2023-03-26T00:51:43.214Z,79.72
2023-03-26T00:54:12.043Z,79.69
2023-03-26T00:56:40.142Z,79.71
2023-03-26T00:59:09.379Z,79.83
2023-03-26T01:01:37.880Z,79.72
2023-03-26T01:04:31.810Z,79.80
2023-03-26T01:07:22.130Z,79.71
2023-03-26T01:09:51.751Z,79.74
2023-03-26T01:12:24.098Z,79.73
2023-03-26T01:14:55.292Z,79.78
2023-03-26T01:17:24.405Z,79.71
2023-03-26T01:20:15.980Z,79.73
2023-03-26T01:22:51.213Z,79.64
2023-03-26T01:25:23.294Z,79.86
2023-03-26T01:27:55.818Z,80.00
2023-03-26T01:30:42.676Z,79.73
2023-03-26T01:33:34.077Z,79.95
2023-03-26T01:36:17.553Z,79.78
2023-03-26T01:39:39.022Z,79.80
2023-03-26T01:42:14.035Z,79.89
2023-03-26T01:44:50.487Z,79.95
2023-03-26T01:47:19.305Z,79.99
2023-03-26T01:49:48.646Z,80.12
2023-03-26T01:52:21.414Z,80.03
2023-03-26T01:54:50.351Z,80.28
2023-03-26T01:57:39.065Z,80.18
2023-03-26T02:00:30.230Z,80.19
2023-03-26T02:03:32.526Z,80.03
2023-03-26T02:06:15.995Z,80.16
2023-03-26T02:08:52.463Z,80.00
2023-03-26T02:11:21.604Z,80.01
2023-03-26T02:13:51.450Z,79.88
2023-03-26T02:16:20.986Z,79.95
2023-03-26T02:18:55.743Z,79.88
2023-03-26T02:21:26.388Z,79.90
2023-03-26T02:24:03.146Z,79.74
2023-03-26T02:26:35.888Z,79.82
2023-03-26T02:29:10.018Z,79.96
2023-03-26T02:31:39.451Z,79.92
2023-03-26T02:34:07.762Z,80.09
2023-03-26T02:36:37.480Z,80.09
2023-03-26T02:39:06.134Z,80.23
2023-03-26T02:41:38.191Z,80.09
2023-03-26T02:44:09.888Z,79.99
2023-03-26T02:46:56.294Z,80.01
2023-03-26T02:49:44.191Z,80.10
2023-03-26T02:52:17.254Z,80.04
2023-03-26T02:54:45.855Z,80.02
2023-03-26T02:57:26.000Z,80.09
2023-03-26T03:00:15.454Z,80.22
2023-03-26T03:02:48.296Z,79.90
2023-03-26T03:05:46.418Z,79.89
2023-03-26T03:08:38.665Z,79.83
2023-03-26T03:11:11.910Z,79.72
2023-03-26T03:13:49.458Z,79.74
2023-03-26T03:16:20.928Z,79.72
2023-03-26T03:18:57.866Z,79.56
2023-03-26T03:21:29.569Z,79.34
2023-03-26T03:24:00.110Z,79.24
2023-03-26T03:26:30.767Z,79.25
2023-03-26T03:29:02.485Z,79.19
2023-03-26T03:31:30.512Z,79.07
2023-03-26T03:34:02.438Z,79.26
2023-03-26T03:36:33.463Z,79.18
2023-03-26T03:39:08.855Z,79.37
2023-03-26T03:41:37.369Z,79.40
2023-03-26T03:44:06.924Z,79.16
2023-03-26T03:46:35.220Z,79.31
2023-03-26T03:49:04.003Z,79.38
2023-03-26T03:51:36.316Z,79.34
2023-03-26T03:54:08.592Z,79.30
2023-03-26T03:56:57.387Z,79.29
2023-03-26T03:59:47.656Z,79.29
2023-03-26T04:02:35.265Z,79.17
2023-03-26T04:05:06.202Z,79.40
2023-03-26T04:07:36.044Z,79.33
2023-03-26T04:10:08.453Z,79.35
2023-03-26T04:12:55.978Z,79.32
2023-03-26T04:15:37.125Z,79.26
2023-03-26T04:18:10.544Z,79.12
2023-03-26T04:20:46.380Z,79.00
2023-03-26T04:23:19.049Z,79.01
2023-03-26T04:25:54.178Z,79.14
2023-03-26T04:28:42.501Z,79.10
2023-03-26T04:31:31.292Z,79.09
2023-03-26T04:34:14.067Z,78.77
2023-03-26T04:36:54.724Z,78.74
2023-03-26T04:39:29.477Z,78.64
2023-03-26T04:42:30.333Z,78.52
2023-03-26T04:45:08.134Z,78.24
2023-03-26T04:47:37.283Z,78.42
2023-03-26T04:50:08.311Z,78.24
2023-03-26T04:52:38.191Z,78.20
2023-03-26T04:55:56.225Z,78.14
2023-03-26T04:58:43.441Z,78.08
2023-03-26T05:01:11.816Z,78.07
2023-03-26T05:03:46.009Z,78.00
2023-03-26T05:06:17.869Z,77.80
2023-03-26T05:08:46.517Z,77.85
2023-03-26T05:11:20.952Z,77.54
2023-03-26T05:13:49.503Z,77.66
2023-03-26T05:16:17.753Z,77.58
2023-03-26T05:18:54.217Z,77.48
2023-03-26T05:21:22.627Z,77.60
2023-03-26T05:23:51.097Z,77.52
2023-03-26T05:26:20.571Z,77.52
2023-03-26T05:28:48.618Z,77.40
2023-03-26T05:31:31.187Z,77.40
2023-03-26T05:34:03.361Z,77.19
2023-03-26T05:36:31.516Z,77.00
2023-03-26T05:39:11.390Z,77.07
2023-03-26T05:41:59.615Z,77.11
2023-03-26T05:44:35.465Z,76.83
2023-03-26T05:47:05.702Z,76.63
2023-03-26T05:49:34.503Z,76.54
2023-03-26T05:52:02.704Z,76.56
2023-03-26T05:54:49.468Z,76.45
2023-03-26T05:57:40.502Z,76.32
2023-03-26T06:00:48.860Z,76.46
2023-03-26T06:03:18.673Z,76.63
2023-03-26T06:06:06.363Z,77.52
2023-03-26T06:09:00.947Z,78.34
2023-03-26T06:11:30.830Z,78.92
2023-03-26T06:13:59.953Z,79.09
2023-03-26T06:16:28.492Z,79.38
2023-03-26T06:19:06.839Z,79.78
2023-03-26T06:21:50.529Z,79.87
2023-03-26T06:24:33.624Z,80.21
2023-03-26T06:27:27.977Z,80.40
2023-03-26T06:30:15.484Z,80.65
2023-03-26T06:33:00.745Z,80.69
2023-03-26T06:35:33.910Z,80.87
2023-03-26T06:38:02.192Z,81.09
2023-03-26T06:40:31.120Z,81.45
2023-03-26T06:43:18.404Z,81.30
2023-03-26T06:46:05.620Z,81.57
2023-03-26T06:49:06.228Z,81.77
2023-03-26T06:51:53.631Z,81.71
2023-03-26T06:54:50.709Z,81.94
2023-03-26T06:57:49.139Z,81.79
2023-03-26T07:00:43.524Z,81.95
2023-03-26T07:03:30.835Z,81.76
2023-03-26T07:06:18.628Z,81.95
2023-03-26T07:09:05.507Z,81.87
2023-03-26T07:12:00.019Z,81.59
2023-03-26T07:14:46.603Z,81.16
2023-03-26T07:17:24.073Z,80.77
2023-03-26T07:20:12.263Z,80.60
2023-03-26T07:22:41.295Z,80.41
2023-03-26T07:25:34.995Z,80.36
2023-03-26T07:28:31.607Z,80.45
2023-03-26T07:31:40.085Z,79.87
2023-03-26T07:34:33.576Z,79.06
2023-03-26T07:38:04.543Z,78.99
2023-03-26T07:41:07.475Z,78.87
2023-03-26T07:44:23.236Z,78.22
2023-03-26T07:47:33.101Z,78.34
2023-03-26T07:50:23.086Z,78.08
2023-03-26T07:53:00.309Z,77.98
2023-03-26T07:56:16.337Z,77.76
2023-03-26T07:59:51.525Z,77.60
2023-03-26T08:03:27.243Z,77.67
2023-03-26T08:06:10.020Z,77.36
2023-03-26T08:09:13.178Z,77.50
2023-03-26T08:12:12.812Z,77.38
2023-03-26T08:14:46.620Z,77.54
2023-03-26T08:17:17.372Z,77.23
2023-03-26T08:19:59.445Z,77.03
2023-03-26T08:22:34.464Z,76.46
2023-03-26T08:25:25.595Z,76.97
2023-03-26T08:28:14.637Z,76.58
2023-03-26T08:30:43.593Z,75.92
2023-03-26T08:33:18.513Z,75.37
2023-03-26T08:35:47.842Z,75.46
2023-03-26T08:38:19.444Z,74.98
2023-03-26T08:41:25.228Z,73.29
2023-03-26T08:44:08.613Z,73.88
2023-03-26T08:47:09.302Z,74.34
2023-03-26T08:50:02.719Z,73.81
2023-03-26T08:53:07.949Z,73.95
2023-03-26T08:55:48.503Z,73.34
2023-03-26T08:58:38.794Z,72.99
2023-03-26T09:01:12.371Z,72.79
2023-03-26T09:04:05.721Z,72.92
2023-03-26T09:07:13.984Z,73.29
2023-03-26T09:09:44.757Z,73.44
2023-03-26T09:12:37.677Z,72.97
2023-03-26T09:15:21.252Z,72.47
2023-03-26T09:18:17.368Z,71.99
2023-03-26T09:20:54.649Z,71.83
2023-03-26T09:24:06.237Z,71.59
2023-03-26T09:26:37.165Z,71.92
2023-03-26T09:29:14.608Z,71.11
2023-03-26T09:31:58.193Z,70.49
2023-03-26T09:34:54.111Z,71.09
2023-03-26T09:37:56.993Z,71.02
2023-03-26T09:40:37.182Z,69.96
2023-03-26T09:43:31.175Z,70.24
2023-03-26T09:46:22.005Z,69.74
2023-03-26T09:49:08.560Z,70.20
2023-03-26T09:52:15.048Z,70.10
2023-03-26T09:54:57.972Z,68.79
2023-03-26T09:58:05.361Z,68.92
2023-03-26T10:01:01.049Z,69.11
2023-03-26T10:04:01.985Z,69.02
2023-03-26T10:06:42.708Z,69.36
2023-03-26T10:09:33.940Z,68.49
2023-03-26T10:12:16.983Z,67.77
2023-03-26T10:15:00.316Z,67.89
2023-03-26T10:18:27.120Z,68.05
2023-03-26T10:21:17.315Z,68.24
2023-03-26T10:23:57.214Z,68.26
2023-03-26T10:26:42.028Z,67.53
2023-03-26T10:29:44.221Z,68.87
2023-03-26T10:32:47.333Z,69.89
2023-03-26T10:35:52.697Z,70.90
2023-03-26T10:38:43.731Z,71.74
2023-03-26T10:41:22.359Z,73.40
2023-03-26T10:44:07.308Z,74.98
2023-03-26T10:46:42.343Z,75.79
2023-03-26T10:49:41.708Z,75.56
2023-03-26T10:52:16.208Z,75.31
2023-03-26T10:54:58.198Z,75.74
2023-03-26T10:57:32.209Z,75.67
2023-03-26T11:00:26.622Z,75.89
2023-03-26T11:03:19.819Z,74.81
2023-03-26T11:06:16.101Z,73.41
2023-03-26T11:08:55.890Z,71.41
2023-03-26T11:11:45.319Z,70.37
2023-03-26T11:14:35.173Z,70.18
2023-03-26T11:17:40.566Z,69.84
2023-03-26T11:20:23.367Z,69.70
2023-03-26T11:23:07.838Z,69.55
2023-03-26T11:25:52.882Z,69.00
2023-03-26T11:28:21.335Z,69.30
2023-03-26T11:31:01.558Z,68.95
2023-03-26T11:33:36.649Z,68.90
2023-03-26T11:36:12.051Z,68.13
2023-03-26T11:38:49.676Z,67.47
2023-03-26T11:41:25.028Z,67.86
2023-03-26T11:44:21.863Z,68.00
2023-03-26T11:46:58.922Z,67.71
2023-03-26T11:49:29.735Z,67.33
2023-03-26T11:51:59.420Z,67.88
2023-03-26T11:54:28.023Z,66.94
2023-03-26T11:57:13.229Z,65.40
2023-03-26T11:59:55.483Z,64.83
2023-03-26T12:02:35.079Z,65.20
2023-03-26T12:05:18.383Z,65.83
2023-03-26T12:07:56.965Z,65.73
2023-03-26T12:10:29.845Z,65.46
2023-03-26T12:13:01.950Z,65.24
2023-03-26T12:15:32.305Z,65.30
2023-03-26T12:18:21.024Z,65.76
2023-03-26T12:20:49.556Z,66.26
2023-03-26T12:24:00.342Z,66.30
2023-03-26T12:26:42.973Z,65.95
2023-03-26T12:29:14.161Z,65.97
2023-03-26T12:31:55.687Z,66.79
2023-03-26T12:34:31.851Z,67.64
2023-03-26T12:37:01.018Z,67.31
2023-03-26T12:40:08.827Z,66.71
2023-03-26T12:44:47.002Z,66.60
2023-03-26T12:45:28.127Z,66.83
2023-03-26T12:48:03.807Z,67.00
2023-03-26T12:50:57.672Z,67.22
2023-03-26T12:53:47.298Z,67.00
2023-03-26T12:56:36.599Z,66.39
2023-03-26T12:59:18.591Z,66.90
2023-03-26T13:02:08.312Z,66.50
2023-03-26T13:05:02.155Z,67.08
2023-03-26T13:08:00.484Z,66.39
2023-03-26T13:10:54.681Z,66.89
2023-03-26T13:13:41.578Z,66.70
2023-03-26T13:16:14.112Z,67.25
2023-03-26T13:19:06.289Z,66.54
2023-03-26T13:22:03.315Z,66.08
2023-03-26T13:25:07.727Z,64.57
2023-03-26T13:28:00.574Z,63.68
2023-03-26T13:30:43.780Z,63.07
2023-03-26T13:33:27.078Z,62.52
2023-03-26T13:36:10.229Z,62.81
2023-03-26T13:38:59.139Z,61.17
2023-03-26T13:41:28.978Z,62.18
2023-03-26T13:44:05.459Z,62.21
2023-03-26T13:46:54.931Z,62.32
2023-03-26T13:49:43.615Z,63.08
2023-03-26T13:52:39.826Z,63.09
2023-03-26T13:55:29.513Z,63.31
2023-03-26T13:58:14.245Z,61.89
2023-03-26T14:00:54.739Z,61.95
2023-03-26T14:03:31.943Z,62.08
2023-03-26T14:06:06.650Z,62.31
2023-03-26T14:08:47.608Z,62.39
2023-03-26T14:11:50.560Z,62.21
2023-03-26T14:15:03.494Z,61.79
2023-03-26T14:17:46.583Z,61.59
2023-03-26T14:20:18.016Z,61.63
2023-03-26T14:23:31.864Z,61.28
2023-03-26T14:26:29.607Z,60.69
2023-03-26T14:29:10.316Z,59.93
2023-03-26T14:32:07.150Z,58.59
2023-03-26T14:34:55.910Z,58.90
2023-03-26T14:37:42.482Z,58.53
2023-03-26T14:40:15.470Z,58.46
2023-03-26T14:43:15.762Z,58.33
2023-03-26T14:46:02.399Z,58.86
2023-03-26T14:48:36.904Z,58.74
2023-03-26T14:51:14.610Z,58.64
2023-03-26T14:53:47.699Z,58.41
2023-03-26T14:56:24.879Z,57.81
2023-03-26T14:59:11.965Z,57.83
2023-03-26T15:02:08.226Z,56.92
2023-03-26T15:04:54.657Z,57.54
2023-03-26T15:07:37.310Z,57.27
2023-03-26T15:10:22.941Z,57.53
2023-03-26T15:13:22.513Z,57.17
2023-03-26T15:16:03.660Z,56.22
2023-03-26T15:18:59.433Z,56.39
2023-03-26T15:21:55.755Z,56.54
2023-03-26T15:24:38.732Z,56.47
2023-03-26T15:27:28.582Z,57.11
2023-03-26T15:30:11.724Z,57.60
2023-03-26T15:33:18.225Z,58.03
2023-03-26T15:36:29.575Z,58.47
2023-03-26T15:39:58.686Z,58.96
2023-03-26T15:42:47.005Z,59.08
2023-03-26T15:45:45.139Z,59.22
2023-03-26T15:48:43.269Z,59.69
2023-03-26T15:51:47.320Z,59.93
2023-03-26T15:54:23.768Z,59.60
2023-03-26T15:57:20.295Z,58.95
2023-03-26T16:00:18.784Z,58.80
2023-03-26T16:03:12.933Z,59.05
2023-03-26T16:06:03.774Z,58.21
2023-03-26T16:08:41.299Z,58.35
2023-03-26T16:11:12.786Z,57.81
2023-03-26T16:13:49.930Z,57.88
2023-03-26T16:16:25.448Z,57.11
2023-03-26T16:19:18.371Z,57.28
2023-03-26T16:22:00.568Z,57.65
2023-03-26T16:24:35.471Z,58.22
2023-03-26T16:27:15.755Z,58.47
2023-03-26T16:30:16.830Z,58.82
2023-03-26T16:32:56.382Z,59.44
2023-03-26T16:35:57.139Z,59.93
2023-03-26T16:38:27.327Z,60.25
2023-03-26T16:41:01.860Z,60.54
2023-03-26T16:43:40.470Z,60.82
2023-03-26T16:46:17.785Z,61.13
2023-03-26T16:48:48.786Z,61.33
2023-03-26T16:51:54.458Z,61.52
2023-03-26T16:54:41.077Z,61.91
2023-03-26T16:57:26.293Z,61.95
2023-03-26T17:00:29.282Z,62.25
2023-03-26T17:03:25.921Z,62.51
2023-03-26T17:05:57.129Z,62.79
2023-03-26T17:08:46.899Z,62.95
2023-03-26T17:11:23.957Z,63.22
2023-03-26T17:14:18.505Z,63.54
2023-03-26T17:16:52.497Z,63.82
2023-03-26T17:19:33.754Z,63.99
2023-03-26T17:22:33.799Z,64.03
2023-03-26T17:25:05.800Z,64.17
2023-03-26T17:28:21.404Z,64.62
2023-03-26T17:31:17.673Z,64.84
2023-03-26T17:33:46.265Z,64.90
2023-03-26T17:36:28.532Z,65.04
2023-03-26T17:39:19.718Z,65.23
2023-03-26T17:42:01.234Z,65.43
2023-03-26T17:44:54.087Z,65.64
2023-03-26T17:47:28.726Z,65.97
2023-03-26T17:50:22.872Z,66.20
2023-03-26T17:53:18.149Z,66.33
2023-03-26T17:55:49.547Z,66.70
2023-03-26T17:58:32.338Z,66.82
2023-03-26T18:01:30.051Z,67.03
2023-03-26T18:04:02.963Z,67.25
2023-03-26T18:06:31.091Z,67.46
2023-03-26T18:09:37.449Z,67.60
2023-03-26T18:12:36.068Z,67.70
2023-03-26T18:15:14.160Z,68.16
2023-03-26T18:17:46.318Z,68.24
2023-03-26T18:20:36.951Z,68.48
2023-03-26T18:23:21.110Z,68.69
2023-03-26T18:25:57.250Z,69.05
2023-03-26T18:28:35.801Z,69.29
2023-03-26T18:31:18.967Z,69.67
2023-03-26T18:33:48.871Z,70.03
2023-03-26T18:36:18.803Z,70.32
2023-03-26T18:38:49.079Z,70.44
2023-03-26T18:41:31.377Z,70.63
2023-03-26T18:44:05.219Z,70.71
2023-03-26T18:46:34.235Z,70.85
2023-03-26T18:49:03.140Z,71.14
2023-03-26T18:51:32.168Z,71.20
2023-03-26T18:54:03.667Z,71.59
2023-03-26T18:56:36.873Z,71.78
2023-03-26T18:59:07.675Z,71.76
2023-03-26T19:01:37.669Z,71.88
2023-03-26T19:04:08.044Z,71.82
2023-03-26T19:06:41.984Z,71.69
2023-03-26T19:09:28.090Z,71.88
2023-03-26T19:12:18.955Z,71.82
2023-03-26T19:14:57.673Z,71.75
2023-03-26T19:17:30.340Z,71.72
2023-03-26T19:19:58.855Z,71.80
2023-03-26T19:22:29.198Z,71.92
2023-03-26T19:25:01.697Z,72.03
2023-03-26T19:27:32.251Z,72.12
2023-03-26T19:30:00.355Z,72.23
2023-03-26T19:32:34.778Z,72.22
2023-03-26T19:35:04.712Z,72.43
2023-03-26T19:37:33.240Z,72.38
2023-03-26T19:40:14.433Z,72.39
2023-03-26T19:42:44.740Z,72.41
2023-03-26T19:45:17.884Z,72.58
2023-03-26T19:47:54.718Z,72.73
2023-03-26T19:50:35.602Z,72.86
2023-03-26T19:53:15.441Z,72.96
2023-03-26T19:56:21.768Z,72.96
2023-03-26T19:58:50.408Z,72.96
2023-03-26T20:01:27.541Z,72.94
2023-03-26T20:03:59.947Z,72.99
2023-03-26T20:09:21.462Z,73.24
2023-03-26T20:11:50.517Z,73.48
2023-03-26T20:14:25.803Z,73.42
2023-03-26T20:16:54.491Z,73.35
2023-03-26T20:19:23.051Z,73.19
2023-03-26T20:21:52.776Z,73.22
2023-03-26T20:24:21.879Z,73.20
2023-03-26T20:26:50.067Z,73.22
2023-03-26T20:29:19.241Z,73.30
2023-03-26T20:31:48.918Z,73.59
2023-03-26T20:34:22.705Z,73.46
2023-03-26T20:37:01.187Z,73.45
2023-03-26T20:39:29.605Z,73.57
2023-03-26T20:41:57.867Z,73.61
2023-03-26T20:44:27.663Z,73.69
2023-03-26T20:46:57.344Z,73.87
2023-03-26T20:49:25.818Z,73.79
2023-03-26T20:51:54.383Z,74.15
2023-03-26T20:54:24.574Z,74.30
2023-03-26T20:56:54.454Z,74.70
2023-03-26T20:59:26.879Z,75.06
2023-03-26T21:01:57.836Z,75.19
2023-03-26T21:04:27.539Z,75.57
2023-03-26T21:07:06.686Z,75.94
2023-03-26T21:09:40.052Z,76.10
2023-03-26T21:12:33.596Z,76.30
2023-03-26T21:15:07.181Z,76.69
2023-03-26T21:17:39.825Z,76.71
2023-03-26T21:20:13.704Z,76.92
2023-03-26T21:22:54.363Z,77.08
2023-03-26T21:25:28.885Z,76.94
2023-03-26T21:28:08.843Z,76.86
2023-03-26T21:30:37.732Z,76.72
2023-03-26T21:33:06.439Z,76.68
2023-03-26T21:35:35.053Z,76.54
2023-03-26T21:38:04.930Z,76.43
2023-03-26T21:40:33.300Z,76.39
2023-03-26T21:43:01.973Z,76.22
2023-03-26T21:45:30.518Z,76.08
2023-03-26T21:47:58.807Z,75.71
2023-03-26T21:50:27.018Z,75.65
2023-03-26T21:52:56.907Z,75.58
2023-03-26T21:55:25.213Z,75.51
2023-03-26T21:58:27.585Z,75.54
2023-03-26T22:01:11.101Z,75.47
2023-03-26T22:04:24.109Z,75.30
2023-03-26T22:07:07.066Z,75.29
2023-03-26T22:09:36.419Z,75.33
2023-03-26T22:12:05.541Z,75.48
2023-03-26T22:14:34.510Z,75.27
2023-03-26T22:17:02.797Z,75.26
2023-03-26T22:19:31.044Z,75.33
2023-03-26T22:22:00.259Z,75.29
2023-03-26T22:24:28.710Z,75.26
2023-03-26T22:26:57.150Z,75.20
2023-03-26T22:29:25.265Z,75.27
2023-03-26T22:31:53.313Z,75.12
2023-03-26T22:34:23.191Z,75.20
2023-03-26T22:36:52.133Z,75.38
2023-03-26T22:39:20.222Z,75.60
2023-03-26T22:41:48.682Z,75.43
2023-03-26T22:44:20.287Z,75.68
2023-03-26T22:46:52.532Z,75.56
2023-03-26T22:49:21.415Z,75.56
2023-03-26T22:51:50.421Z,75.66
2023-03-26T22:54:18.473Z,75.72
2023-03-26T22:56:46.503Z,75.72
2023-03-26T22:59:14.541Z,75.69
2023-03-26T23:01:44.456Z,75.61
2023-03-26T23:04:13.006Z,75.67
2023-03-26T23:07:00.400Z,75.75
2023-03-26T23:09:29.569Z,76.04
2023-03-26T23:11:57.864Z,76.02
2023-03-26T23:14:26.398Z,75.99
2023-03-26T23:16:55.183Z,76.10
2023-03-26T23:19:23.081Z,76.14
2023-03-26T23:21:51.282Z,76.19
2023-03-26T23:24:19.841Z,76.23
2023-03-26T23:26:50.942Z,76.35
2023-03-26T23:29:19.379Z,76.48
2023-03-26T23:31:47.688Z,76.62
2023-03-26T23:34:17.163Z,76.76
2023-03-26T23:36:45.447Z,76.74
2023-03-26T23:39:13.875Z,76.64
2023-03-26T23:41:41.958Z,76.80
2023-03-26T23:44:13.999Z,77.00
2023-03-26T23:46:42.879Z,77.04
2023-03-26T23:49:12.172Z,77.09
2023-03-26T23:51:40.748Z,77.26
2023-03-26T23:54:08.911Z,77.28
2023-03-26T23:56:37.012Z,77.35
2023-03-26T23:59:05.126Z,77.41
